createdAt,value
2018-12-20T00:03:24.453Z,63.10
2018-12-20T00:08:29.119Z,43.70
2018-12-20T00:13:33.213Z,47.27
2018-12-20T00:18:37.398Z,60.97
2018-12-20T00:23:41.802Z,61.50
2018-12-20T00:28:46.374Z,55.80
2018-12-20T00:33:50.875Z,53.37
2018-12-20T00:38:55.320Z,54.63
2018-12-20T00:43:59.738Z,52.93
2018-12-20T00:49:03.963Z,47.20
2018-12-20T00:54:08.725Z,50.53
2018-12-20T00:59:13.240Z,58.77
2018-12-20T01:04:17.698Z,62.93
2018-12-20T01:09:22.380Z,60.20
2018-12-20T01:14:27.018Z,63.60
2018-12-20T01:19:31.269Z,54.93
2018-12-20T01:24:35.349Z,54.27
2018-12-20T01:29:39.416Z,72.13
2018-12-20T01:34:43.541Z,54.97
2018-12-20T01:39:48.008Z,58.20
2018-12-20T01:44:53.559Z,66.60
2018-12-20T01:49:58.975Z,54.70
2018-12-20T01:55:03.045Z,68.30
2018-12-20T02:00:10.366Z,68.60
2018-12-20T02:05:15.023Z,61.70
2018-12-20T02:10:19.694Z,63.80
2018-12-20T02:15:24.029Z,61.70
2018-12-20T02:20:28.159Z,54.50
2018-12-20T02:25:32.413Z,58.50
2018-12-20T02:30:37.321Z,57.67
2018-12-20T02:35:41.653Z,50.17
2018-12-20T02:40:45.828Z,61.03
2018-12-20T02:45:49.894Z,50.23
2018-12-20T02:50:54.275Z,58.70
2018-12-20T02:55:59.167Z,67.00
2018-12-20T03:01:03.785Z,60.80
2018-12-20T03:06:08.334Z,53.03
2018-12-20T03:11:12.673Z,60.20
2018-12-20T03:16:17.002Z,57.83
2018-12-20T03:21:21.090Z,56.53
2018-12-20T03:26:25.684Z,45.43
2018-12-20T03:31:30.457Z,54.27
2018-12-20T03:36:35.230Z,48.60
2018-12-20T03:41:41.031Z,51.73
2018-12-20T03:46:45.934Z,55.27
2018-12-20T03:51:51.229Z,57.83
2018-12-20T03:56:55.894Z,54.90
2018-12-20T04:02:00.544Z,52.10
2018-12-20T04:07:04.986Z,68.50
2018-12-20T04:12:09.369Z,64.50
2018-12-20T04:17:13.615Z,61.60
2018-12-20T04:22:18.308Z,68.70
2018-12-20T04:27:22.584Z,61.03
2018-12-20T04:32:26.708Z,64.13
2018-12-20T04:37:30.797Z,62.00
2018-12-20T04:42:35.386Z,62.17
2018-12-20T04:47:39.964Z,62.77
2018-12-20T04:52:44.759Z,64.33
2018-12-20T04:57:49.461Z,65.43
2018-12-20T05:02:53.769Z,54.03
2018-12-20T05:07:58.698Z,55.40
2018-12-20T05:13:03.403Z,53.07
2018-12-20T05:18:08.875Z,52.30
2018-12-20T05:23:13.101Z,51.20
2018-12-20T05:28:17.815Z,55.67
2018-12-20T05:33:22.176Z,53.83
2018-12-20T05:38:26.270Z,54.80
2018-12-20T05:43:30.369Z,56.33
2018-12-20T05:48:34.816Z,59.13
2018-12-20T05:53:39.418Z,60.03
2018-12-20T05:58:44.599Z,60.03
2018-12-20T06:03:49.470Z,58.73
2018-12-20T06:08:53.702Z,63.07
2018-12-20T06:13:58.775Z,60.23
2018-12-20T06:19:03.148Z,56.10
2018-12-20T06:24:07.454Z,63.47
2018-12-20T06:29:11.597Z,58.83
2018-12-20T06:34:15.942Z,53.30
2018-12-20T06:39:20.127Z,64.07
2018-12-20T06:44:24.199Z,64.00
2018-12-20T06:49:28.880Z,63.37
2018-12-20T06:54:32.956Z,73.53
2018-12-20T06:59:37.263Z,66.63
2018-12-20T07:04:41.424Z,68.77
2018-12-20T07:09:45.497Z,69.23
2018-12-20T07:14:49.567Z,60.70
2018-12-20T07:19:53.796Z,63.50
2018-12-20T07:24:57.879Z,61.50
2018-12-20T07:30:02.507Z,58.80
2018-12-20T07:35:07.326Z,49.97
2018-12-20T07:40:11.539Z,54.47
2018-12-20T07:45:15.595Z,69.93
2018-12-20T07:50:19.816Z,53.40
2018-12-20T07:55:23.860Z,59.83
2018-12-20T08:00:29.987Z,65.40
2018-12-20T08:05:34.074Z,66.23
2018-12-20T08:10:38.199Z,72.93
2018-12-20T08:15:42.339Z,68.80
2018-12-20T08:20:46.931Z,71.87
2018-12-20T08:25:50.998Z,63.70
2018-12-20T08:30:55.093Z,71.10
2018-12-20T08:35:59.216Z,61.70
2018-12-20T08:41:03.303Z,68.37
2018-12-20T08:46:07.845Z,72.80
2018-12-20T08:51:11.924Z,66.00
2018-12-20T08:56:16.011Z,60.90
2018-12-20T09:01:20.108Z,66.07
2018-12-20T09:06:24.226Z,57.13
2018-12-20T09:11:28.538Z,64.30
2018-12-20T09:16:32.611Z,56.87
2018-12-20T09:21:36.664Z,55.33
2018-12-20T09:26:40.737Z,50.03
2018-12-20T09:31:44.796Z,46.03
2018-12-20T09:36:48.867Z,40.80
2018-12-20T09:41:52.937Z,40.07
2018-12-20T09:47:02.416Z,43.73
2018-12-20T09:52:06.527Z,40.33
2018-12-20T09:57:11.232Z,37.97
2018-12-20T10:02:15.327Z,39.83
2018-12-20T10:07:20.159Z,37.00
2018-12-20T10:12:24.291Z,36.13
2018-12-20T10:17:28.411Z,34.97
2018-12-20T10:22:32.483Z,36.47
2018-12-20T10:27:36.564Z,40.50
2018-12-20T10:32:40.645Z,38.10
2018-12-20T10:37:44.735Z,47.40
2018-12-20T10:42:48.827Z,50.93
2018-12-20T10:47:57.145Z,51.93
2018-12-20T10:53:13.125Z,50.17
2018-12-20T10:58:22.016Z,58.17
2018-12-20T11:03:31.391Z,64.00
2018-12-20T11:08:37.728Z,72.20
2018-12-20T11:13:42.651Z,65.93
2018-12-20T11:18:46.786Z,65.70
2018-12-20T11:23:50.896Z,63.57
2018-12-20T11:28:55.135Z,61.93
2018-12-20T11:33:59.206Z,62.97
2018-12-20T11:39:08.466Z,48.50
2018-12-20T11:44:11.268Z,53.27
2018-12-20T11:49:15.397Z,49.10
2018-12-20T11:54:19.478Z,46.80
2018-12-20T11:59:23.538Z,50.07
2018-12-20T12:04:27.643Z,47.00
2018-12-20T12:09:31.736Z,45.87
2018-12-20T12:14:35.835Z,39.77
2018-12-20T12:19:40.393Z,43.23
2018-12-20T12:24:45.565Z,45.23
2018-12-20T12:29:49.661Z,46.17
2018-12-20T12:34:53.714Z,45.70
2018-12-20T12:39:58.227Z,46.97
2018-12-20T12:45:03.769Z,44.13
2018-12-20T12:50:08.442Z,41.83
2018-12-20T12:55:12.557Z,49.57
2018-12-20T13:00:20.346Z,56.23
2018-12-20T13:05:24.692Z,46.27
2018-12-20T13:10:28.755Z,39.53
2018-12-20T13:15:32.829Z,36.07
2018-12-20T13:20:36.906Z,32.87
2018-12-20T13:25:40.971Z,29.67
2018-12-20T13:30:45.062Z,31.53
2018-12-20T13:35:49.131Z,32.70
2018-12-20T13:40:53.212Z,35.23
2018-12-20T13:45:57.288Z,35.07
2018-12-20T13:51:01.369Z,33.10
2018-12-20T13:56:06.123Z,34.30
2018-12-20T14:01:10.232Z,32.70
2018-12-20T14:06:14.785Z,44.27
2018-12-20T14:11:18.843Z,50.70
2018-12-20T14:16:22.916Z,46.33
2018-12-20T14:21:26.999Z,49.57
2018-12-20T14:26:31.142Z,57.27
2018-12-20T14:31:35.273Z,47.10
2018-12-20T14:36:39.354Z,40.40
2018-12-20T14:41:43.456Z,41.07
2018-12-20T14:46:47.541Z,42.80
2018-12-20T14:51:51.650Z,49.77
2018-12-20T14:56:55.704Z,50.83
2018-12-20T15:01:59.755Z,70.23
2018-12-20T15:07:03.828Z,76.10
2018-12-20T15:12:07.923Z,86.33
2018-12-20T15:17:11.988Z,91.97
2018-12-20T15:22:16.066Z,96.37
2018-12-20T15:27:20.195Z,89.70
2018-12-20T15:32:24.529Z,92.33
2018-12-20T15:37:28.642Z,94.47
2018-12-20T15:42:34.975Z,102.33
2018-12-20T15:47:39.151Z,94.03
2018-12-20T15:52:43.524Z,107.03
2018-12-20T15:57:47.591Z,96.03
2018-12-20T16:02:51.695Z,94.17
2018-12-20T16:08:00.122Z,98.20
2018-12-20T16:13:05.061Z,90.83
2018-12-20T16:18:09.157Z,77.60
2018-12-20T16:23:13.866Z,72.77
2018-12-20T16:33:33.139Z,68.50
2018-12-20T16:38:37.550Z,50.10
2018-12-20T16:43:41.624Z,58.10
2018-12-20T16:48:45.803Z,72.90
2018-12-20T16:53:49.898Z,84.13
2018-12-20T16:58:54.017Z,89.60
2018-12-20T17:03:58.199Z,119.90
2018-12-20T17:09:02.643Z,95.63
2018-12-20T17:14:06.753Z,69.37
2018-12-20T17:19:10.923Z,58.73
2018-12-20T17:24:15.433Z,46.90
2018-12-20T17:29:19.614Z,50.57
2018-12-20T17:34:24.524Z,52.73
2018-12-20T17:39:28.642Z,62.23
2018-12-20T17:44:32.734Z,42.97
2018-12-20T17:49:36.845Z,59.23
2018-12-20T17:54:41.387Z,41.00
2018-12-20T17:59:45.530Z,38.93
2018-12-20T18:04:49.942Z,33.43
2018-12-20T18:09:54.851Z,33.13
2018-12-20T18:15:01.381Z,38.77
2018-12-20T18:20:08.784Z,39.93
2018-12-20T18:25:13.220Z,41.97
2018-12-20T18:30:17.369Z,42.40
2018-12-20T18:35:21.458Z,45.50
2018-12-20T18:40:27.087Z,39.00
2018-12-20T18:45:31.186Z,39.00
2018-12-20T18:50:35.286Z,40.63
2018-12-20T18:55:39.779Z,45.40
2018-12-20T19:00:44.233Z,40.70
2018-12-20T19:05:48.381Z,46.20
2018-12-20T19:10:52.833Z,44.97
2018-12-20T19:15:56.896Z,48.27
2018-12-20T19:21:01.032Z,56.27
2018-12-20T19:26:05.235Z,60.83
2018-12-20T19:31:09.324Z,48.20
2018-12-20T19:36:13.381Z,48.70
2018-12-20T19:41:17.426Z,45.50
2018-12-20T19:46:21.468Z,49.50
2018-12-20T19:51:25.515Z,50.53
2018-12-20T19:56:29.575Z,47.40
2018-12-20T20:01:33.636Z,46.33
2018-12-20T20:06:37.731Z,59.50
2018-12-20T20:11:41.783Z,43.93
2018-12-20T20:16:50.582Z,49.97
2018-12-20T20:21:52.401Z,45.73
2018-12-20T20:26:56.513Z,50.40
2018-12-20T20:32:01.930Z,49.70
2018-12-20T20:37:05.960Z,47.13
2018-12-20T20:42:10.014Z,46.30
2018-12-20T20:47:14.056Z,43.97
2018-12-20T20:52:18.177Z,46.03
2018-12-20T20:57:22.334Z,44.53
2018-12-20T21:02:26.389Z,47.43
2018-12-20T21:07:30.396Z,48.60
2018-12-20T21:12:34.522Z,49.77
2018-12-20T21:17:38.581Z,49.67
2018-12-20T21:22:42.672Z,46.33
2018-12-20T21:27:46.761Z,47.93
2018-12-20T21:32:50.777Z,45.23
2018-12-20T21:37:55.245Z,49.70
2018-12-20T21:42:59.372Z,45.60
2018-12-20T21:48:03.436Z,47.83
2018-12-20T21:53:07.541Z,46.00
2018-12-20T21:58:11.623Z,42.57
2018-12-20T22:03:15.759Z,49.73
2018-12-20T22:08:19.884Z,46.77
2018-12-20T22:13:24.606Z,47.40
2018-12-20T22:18:28.736Z,46.93
2018-12-20T22:23:32.742Z,42.73
2018-12-20T22:28:36.798Z,44.17
2018-12-20T22:33:40.947Z,43.70
2018-12-20T22:38:45.516Z,45.67
2018-12-20T22:43:49.615Z,43.10
2018-12-20T22:48:55.871Z,43.73
2018-12-20T22:53:59.935Z,39.40
2018-12-20T22:59:04.466Z,39.83
2018-12-20T23:04:08.951Z,33.43
2018-12-20T23:09:13.785Z,37.97
2018-12-20T23:14:18.079Z,38.07
2018-12-20T23:19:22.218Z,35.27
2018-12-20T23:24:26.325Z,31.87
2018-12-20T23:29:30.567Z,32.17
2018-12-20T23:34:36.020Z,30.87
2018-12-20T23:39:41.794Z,27.80
2018-12-20T23:44:46.249Z,28.87
2018-12-20T23:49:50.343Z,25.43
2018-12-20T23:54:54.450Z,24.30
2018-12-20T23:59:59.693Z,27.60
